sensor_id;sensor_type;location;lat;lon;timestamp;pressure;altitude;pressure_sealevel;temperature;humidity
29315;BME280;16320;53.954;9.506;2022-07-29T00:00:34;101984.94;;;11.96;100.00
29315;BME280;16320;53.954;9.506;2022-07-29T00:03:39;101987.66;;;11.94;100.00
29315;BME280;16320;53.954;9.506;2022-07-29T00:06:43;101977.25;;;11.89;100.00
29315;BME280;16320;53.954;9.506;2022-07-29T00:09:47;101964.38;;;11.82;100.00
29315;BME280;16320;53.954;9.506;2022-07-29T00:12:55;101968.72;;;11.83;100.00
29315;BME280;16320;53.954;9.506;2022-07-29T00:15:59;101963.63;;;11.78;100.00
29315;BME280;16320;53.954;9.506;2022-07-29T00:19:08;101963.75;;;11.75;100.00
29315;BME280;16320;53.954;9.506;2022-07-29T00:22:14;101966.22;;;11.80;100.00
29315;BME280;16320;53.954;9.506;2022-07-29T00:25:18;101970.66;;;11.78;100.00
29315;BME280;16320;53.954;9.506;2022-07-29T00:28:23;101959.38;;;11.74;100.00
29315;BME280;16320;53.954;9.506;2022-07-29T00:31:28;101961.13;;;11.75;100.00
29315;BME280;16320;53.954;9.506;2022-07-29T00:34:32;101963.81;;;11.73;100.00
29315;BME280;16320;53.954;9.506;2022-07-29T00:37:55;101960.94;;;11.80;100.00
29315;BME280;16320;53.954;9.506;2022-07-29T00:41:00;101963.59;;;11.80;100.00
29315;BME280;16320;53.954;9.506;2022-07-29T00:44:04;101968.22;;;11.73;100.00
29315;BME280;16320;53.954;9.506;2022-07-29T00:47:10;101965.63;;;11.71;100.00
29315;BME280;16320;53.954;9.506;2022-07-29T00:50:15;101963.13;;;11.68;100.00
29315;BME280;16320;53.954;9.506;2022-07-29T00:53:19;101957.09;;;11.65;100.00
29315;BME280;16320;53.954;9.506;2022-07-29T00:56:25;101957.28;;;11.60;100.00
29315;BME280;16320;53.954;9.506;2022-07-29T00:59:29;101961.75;;;11.57;100.00
29315;BME280;16320;53.954;9.506;2022-07-29T01:02:38;101957.44;;;11.56;100.00
29315;BME280;16320;53.954;9.506;2022-07-29T01:05:43;101962.81;;;11.52;100.00
29315;BME280;16320;53.954;9.506;2022-07-29T01:08:54;101956.97;;;11.44;100.00
29315;BME280;16320;53.954;9.506;2022-07-29T01:11:59;101969.31;;;11.42;100.00
29315;BME280;16320;53.954;9.506;2022-07-29T01:15:05;101965.75;;;11.43;100.00
29315;BME280;16320;53.954;9.506;2022-07-29T01:18:21;101970.28;;;11.40;100.00
29315;BME280;16320;53.954;9.506;2022-07-29T01:21:38;101971.13;;;11.40;100.00
29315;BME280;16320;53.954;9.506;2022-07-29T01:25:10;101960.59;;;11.40;100.00
29315;BME280;16320;53.954;9.506;2022-07-29T01:35:05;101959.75;;;11.40;100.00
29315;BME280;16320;53.954;9.506;2022-07-29T01:38:44;101964.28;;;11.36;100.00
29315;BME280;16320;53.954;9.506;2022-07-29T01:41:48;101958.19;;;11.34;100.00
29315;BME280;16320;53.954;9.506;2022-07-29T01:45:05;101947.75;;;11.32;100.00
29315;BME280;16320;53.954;9.506;2022-07-29T01:48:21;101949.53;;;11.30;100.00
29315;BME280;16320;53.954;9.506;2022-07-29T01:51:54;101940.00;;;11.28;100.00
29315;BME280;16320;53.954;9.506;2022-07-29T01:55:04;101938.28;;;11.27;100.00
29315;BME280;16320;53.954;9.506;2022-07-29T01:58:11;101929.59;;;11.25;100.00
29315;BME280;16320;53.954;9.506;2022-07-29T02:01:15;101938.38;;;11.24;100.00
29315;BME280;16320;53.954;9.506;2022-07-29T02:04:21;101926.22;;;11.21;100.00
29315;BME280;16320;53.954;9.506;2022-07-29T02:07:32;101925.34;;;11.21;100.00
29315;BME280;16320;53.954;9.506;2022-07-29T02:10:37;101915.81;;;11.18;100.00
29315;BME280;16320;53.954;9.506;2022-07-29T02:13:44;101910.59;;;11.16;100.00
29315;BME280;16320;53.954;9.506;2022-07-29T02:16:52;101912.28;;;11.17;100.00
29315;BME280;16320;53.954;9.506;2022-07-29T02:19:59;101913.28;;;11.15;100.00
29315;BME280;16320;53.954;9.506;2022-07-29T02:23:03;101915.75;;;11.20;100.00
29315;BME280;16320;53.954;9.506;2022-07-29T02:26:08;101913.91;;;11.22;100.00
29315;BME280;16320;53.954;9.506;2022-07-29T02:29:13;101907.88;;;11.20;100.00
29315;BME280;16320;53.954;9.506;2022-07-29T02:32:18;101914.94;;;11.17;100.00
29315;BME280;16320;53.954;9.506;2022-07-29T02:35:24;101912.28;;;11.17;100.00
29315;BME280;16320;53.954;9.506;2022-07-29T02:38:28;101905.34;;;11.16;100.00
29315;BME280;16320;53.954;9.506;2022-07-29T02:42:03;101908.97;;;11.12;100.00
29315;BME280;16320;53.954;9.506;2022-07-29T02:45:08;101907.38;;;11.08;100.00
29315;BME280;16320;53.954;9.506;2022-07-29T02:48:14;101904.69;;;11.10;100.00
29315;BME280;16320;53.954;9.506;2022-07-29T02:51:24;101908.88;;;11.15;100.00
29315;BME280;16320;53.954;9.506;2022-07-29T02:58:32;101907.31;;;11.10;100.00
29315;BME280;16320;53.954;9.506;2022-07-29T03:01:39;101907.47;;;11.05;100.00
29315;BME280;16320;53.954;9.506;2022-07-29T03:04:44;101898.03;;;10.99;100.00
29315;BME280;16320;53.954;9.506;2022-07-29T03:07:56;101896.38;;;10.97;100.00
29315;BME280;16320;53.954;9.506;2022-07-29T03:11:01;101895.53;;;10.95;100.00
29315;BME280;16320;53.954;9.506;2022-07-29T03:14:06;101885.22;;;10.90;100.00
29315;BME280;16320;53.954;9.506;2022-07-29T03:17:12;101880.00;;;10.89;100.00
29315;BME280;16320;53.954;9.506;2022-07-29T03:20:17;101886.13;;;10.89;100.00
29315;BME280;16320;53.954;9.506;2022-07-29T03:23:24;101894.06;;;10.88;100.00
29315;BME280;16320;53.954;9.506;2022-07-29T03:26:30;101886.16;;;10.88;100.00
29315;BME280;16320;53.954;9.506;2022-07-29T03:29:34;101873.06;;;10.86;100.00
29315;BME280;16320;53.954;9.506;2022-07-29T03:32:39;101882.69;;;10.87;100.00
29315;BME280;16320;53.954;9.506;2022-07-29T03:35:48;101880.00;;;10.89;100.00
29315;BME280;16320;53.954;9.506;2022-07-29T03:38:52;101879.09;;;10.90;100.00
29315;BME280;16320;53.954;9.506;2022-07-29T03:41:57;101881.72;;;10.90;100.00
29315;BME280;16320;53.954;9.506;2022-07-29T03:45:05;101883.44;;;10.91;100.00
29315;BME280;16320;53.954;9.506;2022-07-29T03:48:13;101889.66;;;10.88;100.00
29315;BME280;16320;53.954;9.506;2022-07-29T03:51:19;101886.91;;;10.91;100.00
29315;BME280;16320;53.954;9.506;2022-07-29T03:54:37;101881.72;;;10.90;100.00
29315;BME280;16320;53.954;9.506;2022-07-29T03:57:43;101877.44;;;10.87;100.00
29315;BME280;16320;53.954;9.506;2022-07-29T04:00:48;101876.66;;;10.84;100.00
29315;BME280;16320;53.954;9.506;2022-07-29T04:03:53;101869.59;;;10.86;100.00
29315;BME280;16320;53.954;9.506;2022-07-29T04:06:57;101877.44;;;10.87;100.00
29315;BME280;16320;53.954;9.506;2022-07-29T04:10:02;101881.59;;;10.93;100.00
29315;BME280;16320;53.954;9.506;2022-07-29T04:13:06;101880.75;;;10.92;100.00
29315;BME280;16320;53.954;9.506;2022-07-29T04:16:10;101879.03;;;10.91;100.00
29315;BME280;16320;53.954;9.506;2022-07-29T04:19:15;101883.34;;;10.94;100.00
29315;BME280;16320;53.954;9.506;2022-07-29T04:22:20;101877.09;;;10.96;100.00
29315;BME280;16320;53.954;9.506;2022-07-29T04:25:26;101864.88;;;10.95;100.00
29315;BME280;16320;53.954;9.506;2022-07-29T04:28:30;101872.50;;;11.03;100.00
29315;BME280;16320;53.954;9.506;2022-07-29T04:31:34;101884.63;;;11.07;100.00
29315;BME280;16320;53.954;9.506;2022-07-29T04:34:39;101887.94;;;11.12;100.00
29315;BME280;16320;53.954;9.506;2022-07-29T04:37:43;101876.56;;;11.12;100.00
29315;BME280;16320;53.954;9.506;2022-07-29T04:40:48;101879.16;;;11.13;100.00
29315;BME280;16320;53.954;9.506;2022-07-29T04:43:53;101866.78;;;11.15;100.00
29315;BME280;16320;53.954;9.506;2022-07-29T04:46:57;101874.56;;;11.18;100.00
29315;BME280;16320;53.954;9.506;2022-07-29T04:50:02;101871.72;;;11.25;100.00
29315;BME280;16320;53.954;9.506;2022-07-29T04:53:06;101868.06;;;11.29;100.00
29315;BME280;16320;53.954;9.506;2022-07-29T04:56:11;101876.53;;;11.37;100.00
29315;BME280;16320;53.954;9.506;2022-07-29T04:59:16;101873.72;;;11.42;100.00
29315;BME280;16320;53.954;9.506;2022-07-29T05:02:20;101874.59;;;11.42;100.00
29315;BME280;16320;53.954;9.506;2022-07-29T05:05:25;101883.19;;;11.47;100.00
29315;BME280;16320;53.954;9.506;2022-07-29T05:08:30;101891.66;;;11.56;100.00
29315;BME280;16320;53.954;9.506;2022-07-29T05:11:34;101894.06;;;11.62;100.00
29315;BME280;16320;53.954;9.506;2022-07-29T05:14:38;101889.47;;;11.67;100.00
29315;BME280;16320;53.954;9.506;2022-07-29T05:17:44;101899.78;;;11.73;100.00
29315;BME280;16320;53.954;9.506;2022-07-29T05:20:48;101889.75;;;11.83;100.00
29315;BME280;16320;53.954;9.506;2022-07-29T05:23:53;101893.78;;;11.93;100.00
29315;BME280;16320;53.954;9.506;2022-07-29T05:26:58;101891.66;;;12.03;100.00
29315;BME280;16320;53.954;9.506;2022-07-29T05:30:03;101890.28;;;12.15;100.00
29315;BME280;16320;53.954;9.506;2022-07-29T05:33:08;101891.84;;;12.20;100.00
29315;BME280;16320;53.954;9.506;2022-07-29T05:36:33;101903.78;;;12.29;100.00
29315;BME280;16320;53.954;9.506;2022-07-29T05:39:37;101904.25;;;12.39;100.00
29315;BME280;16320;53.954;9.506;2022-07-29T05:42:53;101903.91;;;12.48;100.00
29315;BME280;16320;53.954;9.506;2022-07-29T05:45:58;101913.91;;;12.60;100.00
29315;BME280;16320;53.954;9.506;2022-07-29T05:49:03;101908.28;;;12.70;100.00
29315;BME280;16320;53.954;9.506;2022-07-29T05:52:08;101897.47;;;12.76;100.00
29315;BME280;16320;53.954;9.506;2022-07-29T05:55:13;101889.97;;;12.87;100.00
29315;BME280;16320;53.954;9.506;2022-07-29T05:58:17;101894.69;;;12.99;100.00
29315;BME280;16320;53.954;9.506;2022-07-29T06:01:22;101895.16;;;13.09;100.00
29315;BME280;16320;53.954;9.506;2022-07-29T06:04:26;101899.56;;;13.29;100.00
29315;BME280;16320;53.954;9.506;2022-07-29T06:07:31;101906.03;;;13.43;100.00
29315;BME280;16320;53.954;9.506;2022-07-29T06:10:37;101899.41;;;13.53;100.00
29315;BME280;16320;53.954;9.506;2022-07-29T06:13:41;101902.28;;;13.67;100.00
29315;BME280;16320;53.954;9.506;2022-07-29T06:16:46;101908.56;;;13.84;100.00
29315;BME280;16320;53.954;9.506;2022-07-29T06:19:50;101910.72;;;13.95;100.00
29315;BME280;16320;53.954;9.506;2022-07-29T06:22:55;101914.56;;;14.06;100.00
29315;BME280;16320;53.954;9.506;2022-07-29T06:26:00;101897.50;;;14.14;100.00
29315;BME280;16320;53.954;9.506;2022-07-29T06:29:08;101902.66;;;14.34;100.00
29315;BME280;16320;53.954;9.506;2022-07-29T06:32:12;101901.44;;;14.41;100.00
29315;BME280;16320;53.954;9.506;2022-07-29T06:35:16;101893.03;;;14.51;100.00
29315;BME280;16320;53.954;9.506;2022-07-29T06:38:41;101883.78;;;14.61;100.00
29315;BME280;16320;53.954;9.506;2022-07-29T06:41:54;101865.41;;;14.75;100.00
29315;BME280;16320;53.954;9.506;2022-07-29T06:44:59;101842.59;;;14.90;100.00
29315;BME280;16320;53.954;9.506;2022-07-29T06:48:06;101823.34;;;15.04;100.00
29315;BME280;16320;53.954;9.506;2022-07-29T06:51:11;101803.56;;;15.11;100.00
29315;BME280;16320;53.954;9.506;2022-07-29T06:54:15;101819.13;;;15.17;100.00
29315;BME280;16320;53.954;9.506;2022-07-29T06:57:21;101819.81;;;15.21;100.00
29315;BME280;16320;53.954;9.506;2022-07-29T07:00:25;101816.72;;;15.29;100.00
29315;BME280;16320;53.954;9.506;2022-07-29T07:03:30;101811.44;;;15.29;100.00
29315;BME280;16320;53.954;9.506;2022-07-29T07:06:35;101813.59;;;15.38;100.00
29315;BME280;16320;53.954;9.506;2022-07-29T07:09:39;101811.72;;;15.40;100.00
29315;BME280;16320;53.954;9.506;2022-07-29T07:12:44;101821.03;;;15.47;100.00
29315;BME280;16320;53.954;9.506;2022-07-29T07:15:48;101834.53;;;15.59;100.00
29315;BME280;16320;53.954;9.506;2022-07-29T07:18:53;101844.81;;;15.65;100.00
29315;BME280;16320;53.954;9.506;2022-07-29T07:21:57;101842.59;;;15.73;100.00
29315;BME280;16320;53.954;9.506;2022-07-29T07:25:05;101822.59;;;15.83;100.00
29315;BME280;16320;53.954;9.506;2022-07-29T07:28:09;101831.16;;;15.88;100.00
29315;BME280;16320;53.954;9.506;2022-07-29T07:31:14;101825.00;;;15.88;100.00
29315;BME280;16320;53.954;9.506;2022-07-29T07:34:18;101821.31;;;15.90;100.00
29315;BME280;16320;53.954;9.506;2022-07-29T07:37:33;101798.25;;;15.92;100.00
29315;BME280;16320;53.954;9.506;2022-07-29T07:40:37;101799.69;;;15.98;100.00
29315;BME280;16320;53.954;9.506;2022-07-29T07:43:42;101787.81;;;16.05;100.00
29315;BME280;16320;53.954;9.506;2022-07-29T07:46:46;101796.69;;;16.04;100.00
29315;BME280;16320;53.954;9.506;2022-07-29T07:49:52;101817.97;;;16.03;100.00
29315;BME280;16320;53.954;9.506;2022-07-29T07:52:57;101836.59;;;16.17;100.00
29315;BME280;16320;53.954;9.506;2022-07-29T07:56:02;101824.00;;;16.21;100.00
29315;BME280;16320;53.954;9.506;2022-07-29T07:59:16;101838.41;;;16.31;100.00
29315;BME280;16320;53.954;9.506;2022-07-29T08:02:20;101848.94;;;16.33;100.00
29315;BME280;16320;53.954;9.506;2022-07-29T08:05:25;101824.41;;;16.29;100.00
29315;BME280;16320;53.954;9.506;2022-07-29T08:08:29;101827.63;;;16.34;100.00
29315;BME280;16320;53.954;9.506;2022-07-29T08:11:34;101821.97;;;16.40;100.00
29315;BME280;16320;53.954;9.506;2022-07-29T08:14:40;101825.38;;;16.42;100.00
29315;BME280;16320;53.954;9.506;2022-07-29T08:17:45;101816.50;;;16.43;100.00
29315;BME280;16320;53.954;9.506;2022-07-29T08:20:50;101815.66;;;16.43;100.00
29315;BME280;16320;53.954;9.506;2022-07-29T08:23:54;101806.38;;;16.50;100.00
29315;BME280;16320;53.954;9.506;2022-07-29T08:27:18;101795.06;;;16.62;100.00
29315;BME280;16320;53.954;9.506;2022-07-29T08:30:44;101784.63;;;16.74;100.00
29315;BME280;16320;53.954;9.506;2022-07-29T08:33:49;101794.28;;;16.75;100.00
29315;BME280;16320;53.954;9.506;2022-07-29T08:36:54;101803.03;;;16.91;100.00
29315;BME280;16320;53.954;9.506;2022-07-29T08:39:59;101808.75;;;16.99;100.00
29315;BME280;16320;53.954;9.506;2022-07-29T08:43:07;101789.78;;;17.06;100.00
29315;BME280;16320;53.954;9.506;2022-07-29T08:46:11;101814.34;;;17.09;100.00
29315;BME280;16320;53.954;9.506;2022-07-29T08:49:17;101812.91;;;17.18;100.00
29315;BME280;16320;53.954;9.506;2022-07-29T08:52:25;101809.59;;;17.29;100.00
29315;BME280;16320;53.954;9.506;2022-07-29T08:55:29;101806.25;;;17.25;100.00
29315;BME280;16320;53.954;9.506;2022-07-29T08:58:34;101818.22;;;17.32;100.00
29315;BME280;16320;53.954;9.506;2022-07-29T09:01:41;101806.25;;;17.39;100.00
29315;BME280;16320;53.954;9.506;2022-07-29T09:04:48;101803.88;;;17.35;100.00
29315;BME280;16320;53.954;9.506;2022-07-29T09:07:53;101820.09;;;17.45;100.00
29315;BME280;16320;53.954;9.506;2022-07-29T09:10:57;101810.16;;;17.48;100.00
29315;BME280;16320;53.954;9.506;2022-07-29T09:14:06;101805.69;;;17.49;100.00
29315;BME280;16320;53.954;9.506;2022-07-29T09:17:11;101810.59;;;17.55;100.00
29315;BME280;16320;53.954;9.506;2022-07-29T09:20:17;101829.66;;;17.62;100.00
29315;BME280;16320;53.954;9.506;2022-07-29T09:23:22;101834.88;;;17.63;100.00
29315;BME280;16320;53.954;9.506;2022-07-29T09:26:28;101848.31;;;17.74;100.00
29315;BME280;16320;53.954;9.506;2022-07-29T09:29:34;101818.47;;;17.84;100.00
29315;BME280;16320;53.954;9.506;2022-07-29T09:32:59;101789.22;;;17.98;100.00
29315;BME280;16320;53.954;9.506;2022-07-29T09:36:08;101787.69;;;18.08;100.00
29315;BME280;16320;53.954;9.506;2022-07-29T09:39:13;101797.56;;;18.19;100.00
29315;BME280;16320;53.954;9.506;2022-07-29T09:42:28;101785.63;;;18.39;100.00
29315;BME280;16320;53.954;9.506;2022-07-29T09:45:33;101750.50;;;18.60;100.00
29315;BME280;16320;53.954;9.506;2022-07-29T09:48:38;101749.84;;;18.69;100.00
29315;BME280;16320;53.954;9.506;2022-07-29T09:51:43;101736.75;;;18.79;100.00
29315;BME280;16320;53.954;9.506;2022-07-29T09:54:47;101716.66;;;18.88;100.00
29315;BME280;16320;53.954;9.506;2022-07-29T09:57:52;101752.84;;;19.03;100.00
29315;BME280;16320;53.954;9.506;2022-07-29T10:00:57;101757.72;;;19.09;100.00
29315;BME280;16320;53.954;9.506;2022-07-29T10:04:02;101731.00;;;19.11;100.00
29315;BME280;16320;53.954;9.506;2022-07-29T10:07:07;101750.06;;;19.05;100.00
29315;BME280;16320;53.954;9.506;2022-07-29T10:10:25;101764.44;;;19.02;100.00
29315;BME280;16320;53.954;9.506;2022-07-29T10:13:30;101770.75;;;19.01;100.00
29315;BME280;16320;53.954;9.506;2022-07-29T10:16:34;101784.28;;;18.98;100.00
29315;BME280;16320;53.954;9.506;2022-07-29T10:19:42;101774.56;;;18.84;100.00
29315;BME280;16320;53.954;9.506;2022-07-29T10:22:47;101782.47;;;18.86;100.00
29315;BME280;16320;53.954;9.506;2022-07-29T10:25:58;101825.44;;;18.79;100.00
29315;BME280;16320;53.954;9.506;2022-07-29T10:29:03;101758.69;;;18.82;100.00
29315;BME280;16320;53.954;9.506;2022-07-29T10:42:23;101787.09;;;18.56;100.00
29315;BME280;16320;53.954;9.506;2022-07-29T10:45:37;101796.34;;;18.63;100.00
29315;BME280;16320;53.954;9.506;2022-07-29T10:49:04;101805.53;;;18.59;100.00
29315;BME280;16320;53.954;9.506;2022-07-29T10:52:11;101813.31;;;18.75;100.00
29315;BME280;16320;53.954;9.506;2022-07-29T10:55:38;101820.53;;;18.73;100.00
29315;BME280;16320;53.954;9.506;2022-07-29T11:05:53;101787.56;;;18.89;100.00
29315;BME280;16320;53.954;9.506;2022-07-29T11:09:18;101786.94;;;18.98;100.00
29315;BME280;16320;53.954;9.506;2022-07-29T11:15:54;101804.16;;;19.05;100.00
29315;BME280;16320;53.954;9.506;2022-07-29T11:22:35;101784.34;;;19.09;100.00
29315;BME280;16320;53.954;9.506;2022-07-29T11:29:22;101773.78;;;19.20;100.00
29315;BME280;16320;53.954;9.506;2022-07-29T11:32:35;101789.41;;;19.25;100.00
29315;BME280;16320;53.954;9.506;2022-07-29T11:35:40;101769.41;;;19.19;100.00
29315;BME280;16320;53.954;9.506;2022-07-29T11:38:44;101765.81;;;19.20;100.00
29315;BME280;16320;53.954;9.506;2022-07-29T11:41:50;101756.41;;;19.28;100.00
29315;BME280;16320;53.954;9.506;2022-07-29T11:44:58;101755.13;;;19.33;100.00
29315;BME280;16320;53.954;9.506;2022-07-29T11:48:23;101759.34;;;19.36;100.00
29315;BME280;16320;53.954;9.506;2022-07-29T11:51:33;101757.31;;;19.39;100.00
29315;BME280;16320;53.954;9.506;2022-07-29T11:54:37;101765.72;;;19.46;100.00
29315;BME280;16320;53.954;9.506;2022-07-29T11:58:04;101753.16;;;19.48;100.00
29315;BME280;16320;53.954;9.506;2022-07-29T12:01:13;101698.16;;;19.47;100.00
29315;BME280;16320;53.954;9.506;2022-07-29T12:04:18;101692.38;;;19.53;100.00
29315;BME280;16320;53.954;9.506;2022-07-29T12:07:30;101730.53;;;19.78;100.00
29315;BME280;16320;53.954;9.506;2022-07-29T12:10:38;101749.94;;;19.80;100.00
29315;BME280;16320;53.954;9.506;2022-07-29T12:13:42;101720.59;;;19.80;100.00
29315;BME280;16320;53.954;9.506;2022-07-29T12:16:48;101678.63;;;20.06;100.00
29315;BME280;16320;53.954;9.506;2022-07-29T12:19:53;101666.06;;;20.20;100.00
29315;BME280;16320;53.954;9.506;2022-07-29T12:23:07;101675.41;;;20.37;100.00
29315;BME280;16320;53.954;9.506;2022-07-29T12:26:13;101667.03;;;20.41;100.00
29315;BME280;16320;53.954;9.506;2022-07-29T12:29:28;101681.72;;;20.92;100.00
29315;BME280;16320;53.954;9.506;2022-07-29T12:32:41;101615.34;;;21.20;100.00
29315;BME280;16320;53.954;9.506;2022-07-29T12:35:48;101598.53;;;21.40;100.00
29315;BME280;16320;53.954;9.506;2022-07-29T12:39:10;101640.44;;;21.72;100.00
29315;BME280;16320;53.954;9.506;2022-07-29T12:42:15;101567.53;;;22.01;100.00
29315;BME280;16320;53.954;9.506;2022-07-29T12:45:28;101579.25;;;22.31;100.00
29315;BME280;16320;53.954;9.506;2022-07-29T12:48:38;101552.81;;;22.47;100.00
29315;BME280;16320;53.954;9.506;2022-07-29T12:51:42;101539.31;;;22.59;100.00
29315;BME280;16320;53.954;9.506;2022-07-29T12:54:47;101546.66;;;22.66;100.00
29315;BME280;16320;53.954;9.506;2022-07-29T12:57:52;101541.72;;;22.62;100.00
29315;BME280;16320;53.954;9.506;2022-07-29T13:01:16;101529.59;;;22.58;100.00
29315;BME280;16320;53.954;9.506;2022-07-29T13:04:29;101515.09;;;22.60;100.00
29315;BME280;16320;53.954;9.506;2022-07-29T13:07:35;101521.00;;;22.64;100.00
29315;BME280;16320;53.954;9.506;2022-07-29T13:11:00;101509.00;;;22.48;100.00
29315;BME280;16320;53.954;9.506;2022-07-29T13:14:06;101505.22;;;22.51;100.00
29315;BME280;16320;53.954;9.506;2022-07-29T13:17:21;101512.38;;;22.41;100.00
29315;BME280;16320;53.954;9.506;2022-07-29T13:20:28;101516.34;;;22.16;100.00
29315;BME280;16320;53.954;9.506;2022-07-29T13:23:35;101509.56;;;22.02;100.00
29315;BME280;16320;53.954;9.506;2022-07-29T13:26:41;101497.72;;;22.04;100.00
29315;BME280;16320;53.954;9.506;2022-07-29T13:29:46;101526.97;;;21.96;100.00
29315;BME280;16320;53.954;9.506;2022-07-29T13:32:52;101492.59;;;21.91;100.00
29315;BME280;16320;53.954;9.506;2022-07-29T13:35:56;101491.66;;;22.02;100.00
29315;BME280;16320;53.954;9.506;2022-07-29T13:39:01;101484.16;;;21.86;100.00
29315;BME280;16320;53.954;9.506;2022-07-29T13:42:06;101491.72;;;21.81;100.00
29315;BME280;16320;53.954;9.506;2022-07-29T13:45:14;101488.53;;;21.56;100.00
29315;BME280;16320;53.954;9.506;2022-07-29T13:48:18;101487.53;;;21.57;100.00
29315;BME280;16320;53.954;9.506;2022-07-29T13:51:23;101480.56;;;21.45;100.00
29315;BME280;16320;53.954;9.506;2022-07-29T13:54:27;101485.72;;;21.37;100.00
29315;BME280;16320;53.954;9.506;2022-07-29T13:57:32;101486.69;;;21.36;100.00
29315;BME280;16320;53.954;9.506;2022-07-29T14:00:36;101511.13;;;21.31;100.00
29315;BME280;16320;53.954;9.506;2022-07-29T14:03:40;101509.75;;;21.16;100.00
29315;BME280;16320;53.954;9.506;2022-07-29T14:06:49;101507.34;;;21.13;100.00
29315;BME280;16320;53.954;9.506;2022-07-29T14:09:54;101508.69;;;21.07;100.00
29315;BME280;16320;53.954;9.506;2022-07-29T14:12:58;101520.53;;;20.93;100.00
29315;BME280;16320;53.954;9.506;2022-07-29T14:16:02;101515.19;;;20.93;100.00
29315;BME280;16320;53.954;9.506;2022-07-29T14:19:07;101517.53;;;20.87;100.00
29315;BME280;16320;53.954;9.506;2022-07-29T14:22:11;101507.19;;;20.93;100.00
29315;BME280;16320;53.954;9.506;2022-07-29T14:25:17;101524.16;;;20.92;100.00
29315;BME280;16320;53.954;9.506;2022-07-29T14:28:24;101518.25;;;20.89;100.00
29315;BME280;16320;53.954;9.506;2022-07-29T14:31:28;101524.75;;;20.75;100.00
29315;BME280;16320;53.954;9.506;2022-07-29T14:34:33;101535.25;;;20.76;100.00
29315;BME280;16320;53.954;9.506;2022-07-29T14:37:37;101517.41;;;20.88;100.00
29315;BME280;16320;53.954;9.506;2022-07-29T14:40:43;101487.78;;;20.91;100.00
29315;BME280;16320;53.954;9.506;2022-07-29T14:43:48;101494.78;;;20.92;100.00
29315;BME280;16320;53.954;9.506;2022-07-29T14:46:52;101487.72;;;21.02;100.00
29315;BME280;16320;53.954;9.506;2022-07-29T14:49:56;101504.22;;;21.08;100.00
29315;BME280;16320;53.954;9.506;2022-07-29T14:53:01;101495.19;;;21.09;100.00
29315;BME280;16320;53.954;9.506;2022-07-29T14:56:05;101488.44;;;21.05;100.00
29315;BME280;16320;53.954;9.506;2022-07-29T14:59:30;101499.56;;;21.10;100.00
29315;BME280;16320;53.954;9.506;2022-07-29T15:02:34;101511.09;;;21.10;100.00
29315;BME280;16320;53.954;9.506;2022-07-29T15:05:59;101501.75;;;21.16;100.00
29315;BME280;16320;53.954;9.506;2022-07-29T15:09:04;101471.41;;;21.27;100.00
29315;BME280;16320;53.954;9.506;2022-07-29T15:12:09;101494.50;;;21.28;100.00
29315;BME280;16320;53.954;9.506;2022-07-29T15:15:14;101482.34;;;21.35;100.00
29315;BME280;16320;53.954;9.506;2022-07-29T15:18:20;101468.69;;;21.38;100.00
29315;BME280;16320;53.954;9.506;2022-07-29T15:21:29;101473.75;;;21.41;100.00
29315;BME280;16320;53.954;9.506;2022-07-29T15:24:33;101474.97;;;21.27;100.00
29315;BME280;16320;53.954;9.506;2022-07-29T15:27:38;101488.31;;;21.27;100.00
29315;BME280;16320;53.954;9.506;2022-07-29T15:30:42;101482.78;;;21.19;100.00
29315;BME280;16320;53.954;9.506;2022-07-29T15:33:47;101481.22;;;21.16;100.00
29315;BME280;16320;53.954;9.506;2022-07-29T15:36:51;101480.69;;;21.23;100.00
29315;BME280;16320;53.954;9.506;2022-07-29T15:39:57;101477.00;;;21.14;100.00
29315;BME280;16320;53.954;9.506;2022-07-29T15:43:03;101493.47;;;21.19;100.00
29315;BME280;16320;53.954;9.506;2022-07-29T15:46:14;101477.69;;;21.16;100.00
29315;BME280;16320;53.954;9.506;2022-07-29T15:49:39;101463.50;;;21.15;100.00
29315;BME280;16320;53.954;9.506;2022-07-29T15:52:51;101460.97;;;21.14;100.00
29315;BME280;16320;53.954;9.506;2022-07-29T15:55:56;101475.03;;;21.16;100.00
29315;BME280;16320;53.954;9.506;2022-07-29T15:59:02;101482.47;;;21.12;100.00
29315;BME280;16320;53.954;9.506;2022-07-29T16:02:06;101478.00;;;21.01;100.00
29315;BME280;16320;53.954;9.506;2022-07-29T16:05:11;101482.78;;;20.98;100.00
29315;BME280;16320;53.954;9.506;2022-07-29T16:08:15;101472.81;;;21.00;100.00
29315;BME280;16320;53.954;9.506;2022-07-29T16:11:20;101467.13;;;20.93;100.00
29315;BME280;16320;53.954;9.506;2022-07-29T16:14:24;101486.78;;;20.92;100.00
29315;BME280;16320;53.954;9.506;2022-07-29T16:17:31;101482.69;;;20.88;100.00
29315;BME280;16320;53.954;9.506;2022-07-29T16:20:36;101492.16;;;20.81;100.00
29315;BME280;16320;53.954;9.506;2022-07-29T16:23:40;101509.44;;;20.77;100.00
29315;BME280;16320;53.954;9.506;2022-07-29T16:26:45;101532.00;;;20.73;100.00
29315;BME280;16320;53.954;9.506;2022-07-29T16:29:49;101525.84;;;20.72;100.00
29315;BME280;16320;53.954;9.506;2022-07-29T16:32:56;101507.03;;;20.74;100.00
29315;BME280;16320;53.954;9.506;2022-07-29T16:36:00;101496.84;;;20.67;100.00
29315;BME280;16320;53.954;9.506;2022-07-29T16:39:04;101482.28;;;20.72;100.00
29315;BME280;16320;53.954;9.506;2022-07-29T16:42:09;101498.75;;;20.77;100.00
29315;BME280;16320;53.954;9.506;2022-07-29T16:45:33;101496.59;;;20.71;100.00